Time;durP1;ratioP1;P1;durP2;ratioP2;P2;SDS_P1;SDS_P2;PMS_P1;PMS_P2;Temp;Humidity;BMP_temperature;BMP_pressure;BME280_temperature;BME280_humidity;BME280_pressure;Samples;Min_cycle;Max_cycle;Signal;HPM_P1;HPM_P2
2023/04/17 00:01:08;;;;;;;6.10;4.33;;;9.80;99.90;;;;;;5146434;27;20460;-68
2023/04/17 00:03:36;;;;;;;18.63;8.37;;;9.70;99.90;;;;;;5148864;27;20455;-68
2023/04/17 00:06:04;;;;;;;6.43;5.83;;;9.70;99.90;;;;;;5148907;27;20459;-69
2023/04/17 00:08:31;;;;;;;13.63;8.43;;;9.70;99.90;;;;;;5148362;27;20455;-69
2023/04/17 00:10:58;;;;;;;4.13;3.83;;;9.70;99.90;;;;;;5147186;27;20458;-69
2023/04/17 00:13:25;;;;;;;11.43;8.80;;;9.70;99.90;;;;;;5147153;27;20461;-68
2023/04/17 00:15:52;;;;;;;18.77;12.63;;;9.70;99.90;;;;;;5146877;27;20498;-70
2023/04/17 00:18:20;;;;;;;12.83;8.23;;;9.70;99.90;;;;;;5147354;27;21099;-68
2023/04/17 00:20:46;;;;;;;9.50;8.17;;;9.80;99.90;;;;;;5147106;27;20451;-68
2023/04/17 00:23:13;;;;;;;6.83;5.23;;;9.80;99.90;;;;;;5147193;27;20823;-69
2023/04/17 00:25:40;;;;;;;13.27;7.77;;;9.80;99.90;;;;;;5146758;27;20447;-69
2023/04/17 00:28:07;;;;;;;12.03;6.00;;;9.80;99.90;;;;;;5146862;27;20982;-69
2023/04/17 00:30:34;;;;;;;12.97;10.07;;;9.80;99.90;;;;;;5147031;27;20451;-69
2023/04/17 00:33:00;;;;;;;10.63;8.83;;;9.80;99.90;;;;;;5146869;27;20455;-68
2023/04/17 00:35:29;;;;;;;12.50;7.33;;;9.80;99.90;;;;;;5146602;27;20883;-69
2023/04/17 00:37:56;;;;;;;18.67;11.70;;;9.90;99.90;;;;;;5147337;27;20802;-67
2023/04/17 00:40:22;;;;;;;12.30;7.77;;;9.90;99.90;;;;;;5147182;27;20472;-69
2023/04/17 00:42:52;;;;;;;7.80;5.93;;;9.80;99.90;;;;;;5146897;27;20455;-68
2023/04/17 00:45:20;;;;;;;12.90;6.93;;;9.90;99.90;;;;;;5146880;27;20479;-69
2023/04/17 00:47:48;;;;;;;16.10;6.03;;;9.90;99.90;;;;;;5145309;27;20455;-68
2023/04/17 00:50:15;;;;;;;13.77;9.50;;;9.90;99.90;;;;;;5147345;27;20459;-67
2023/04/17 00:52:45;;;;;;;4.70;4.33;;;9.80;99.90;;;;;;5146851;27;20554;-68
2023/04/17 00:55:13;;;;;;;20.40;11.17;;;9.90;99.90;;;;;;5146872;27;20483;-67
2023/04/17 00:57:41;;;;;;;12.13;3.57;;;9.90;99.90;;;;;;5149798;27;20443;-68
2023/04/17 01:00:10;;;;;;;5.30;4.83;;;9.80;99.90;;;;;;5149534;27;20488;-68
2023/04/17 01:02:36;;;;;;;6.47;5.97;;;9.90;99.90;;;;;;5149921;27;20455;-68
2023/04/17 01:05:04;;;;;;;9.30;6.57;;;9.90;99.90;;;;;;5150394;27;20466;-68
2023/04/17 01:07:31;;;;;;;7.00;4.73;;;9.90;99.90;;;;;;5135509;27;20467;-69
2023/04/17 01:09:59;;;;;;;8.80;5.67;;;9.90;99.90;;;;;;5134899;27;20516;-69
2023/04/17 01:12:26;;;;;;;5.67;3.87;;;9.90;99.90;;;;;;5149645;27;20459;-69
2023/04/17 01:14:55;;;;;;;8.23;7.40;;;9.90;99.90;;;;;;5150204;27;20512;-69
2023/04/17 01:17:22;;;;;;;8.37;6.50;;;9.90;99.90;;;;;;5150377;27;20531;-69
2023/04/17 01:19:50;;;;;;;13.57;8.50;;;9.90;99.90;;;;;;5150516;27;20818;-68
2023/04/17 01:22:18;;;;;;;2.87;2.77;;;9.80;99.90;;;;;;5150226;27;20459;-70
2023/04/17 01:24:47;;;;;;;4.60;4.37;;;9.90;99.90;;;;;;5149837;27;20448;-69
2023/04/17 01:27:14;;;;;;;9.90;7.00;;;9.90;99.90;;;;;;5147124;27;20853;-69
2023/04/17 01:29:41;;;;;;;3.17;2.93;;;9.90;99.90;;;;;;5145838;27;20895;-69
2023/04/17 01:32:09;;;;;;;5.97;4.83;;;9.90;99.90;;;;;;5149581;27;20504;-69
2023/04/17 01:34:36;;;;;;;11.50;10.03;;;9.80;99.90;;;;;;5149784;27;20455;-69
2023/04/17 01:37:03;;;;;;;2.57;2.47;;;9.80;99.90;;;;;;5149992;27;20941;-69
2023/04/17 01:39:30;;;;;;;6.27;5.73;;;9.80;99.90;;;;;;5150169;27;20504;-69
2023/04/17 01:41:58;;;;;;;14.10;11.00;;;9.70;99.90;;;;;;5149990;27;20855;-69
2023/04/17 01:44:25;;;;;;;11.60;8.30;;;9.80;99.90;;;;;;5149510;27;20471;-69
2023/04/17 01:46:52;;;;;;;18.00;9.43;;;9.80;99.90;;;;;;5149347;27;20451;-69
2023/04/17 01:49:19;;;;;;;6.90;4.97;;;9.70;99.90;;;;;;5149495;27;20582;-70
2023/04/17 01:51:46;;;;;;;6.07;5.20;;;9.70;99.90;;;;;;5149947;27;20451;-70
2023/04/17 01:54:14;;;;;;;9.53;8.20;;;9.70;99.90;;;;;;5149768;27;20512;-70
2023/04/17 01:56:41;;;;;;;9.13;6.10;;;9.80;99.90;;;;;;5149098;27;21066;-69
2023/04/17 01:59:09;;;;;;;24.50;11.07;;;9.80;99.90;;;;;;5149562;27;21036;-69
2023/04/17 02:01:37;;;;;;;4.80;4.40;;;9.70;99.90;;;;;;5146369;27;20475;-69
2023/04/17 02:04:03;;;;;;;13.50;8.83;;;9.70;99.90;;;;;;5149506;27;20815;-70
2023/04/17 02:06:31;;;;;;;18.87;8.63;;;9.70;99.90;;;;;;5148766;27;20448;-69
2023/04/17 02:08:59;;;;;;;17.97;10.70;;;9.70;99.90;;;;;;5148050;27;20451;-69
2023/04/17 02:11:26;;;;;;;11.23;9.67;;;9.70;99.90;;;;;;5149176;27;20938;-69
2023/04/17 02:13:53;;;;;;;19.53;10.77;;;9.60;99.90;;;;;;5149140;27;20474;-70
2023/04/17 02:16:22;;;;;;;5.47;4.00;;;9.60;99.90;;;;;;5149239;27;20491;-69
2023/04/17 02:18:49;;;;;;;8.73;7.93;;;9.60;99.90;;;;;;5150985;27;20927;-69
2023/04/17 02:21:16;;;;;;;18.80;12.07;;;9.60;99.90;;;;;;5150858;27;21023;-69
2023/04/17 02:23:43;;;;;;;4.70;4.43;;;9.50;99.90;;;;;;5150935;27;20531;-70
2023/04/17 02:26:11;;;;;;;10.37;9.33;;;9.60;99.90;;;;;;5150304;27;20459;-70
2023/04/17 02:28:38;;;;;;;16.33;12.33;;;9.60;99.90;;;;;;5150185;27;20463;-68
2023/04/17 02:31:07;;;;;;;15.70;11.00;;;9.50;99.90;;;;;;5145373;27;20833;-70
2023/04/17 02:33:36;;;;;;;21.13;9.10;;;9.50;99.90;;;;;;5143547;27;20583;-69
2023/04/17 02:36:03;;;;;;;6.07;5.53;;;9.40;99.90;;;;;;5145538;27;21081;-70
2023/04/17 02:38:29;;;;;;;4.57;4.17;;;9.40;99.90;;;;;;5150325;27;20456;-69
2023/04/17 02:40:57;;;;;;;15.07;10.03;;;9.50;99.90;;;;;;5150606;27;20494;-69
2023/04/17 02:43:24;;;;;;;8.60;7.77;;;9.50;99.90;;;;;;5150066;27;20508;-68
2023/04/17 02:45:51;;;;;;;17.00;8.53;;;9.50;99.90;;;;;;5150220;27;20532;-70
2023/04/17 02:48:18;;;;;;;8.73;7.57;;;9.50;99.90;;;;;;5150289;27;20462;-70
2023/04/17 02:50:47;;;;;;;4.57;4.27;;;9.50;99.90;;;;;;5150413;27;20516;-69
2023/04/17 02:53:14;;;;;;;18.53;13.13;;;9.50;99.90;;;;;;5150230;27;20525;-69
2023/04/17 02:55:41;;;;;;;4.20;3.90;;;9.50;99.90;;;;;;5149606;27;20841;-69
2023/04/17 02:58:08;;;;;;;16.73;10.50;;;9.40;99.90;;;;;;5150971;27;20946;-69
2023/04/17 03:00:35;;;;;;;7.50;6.80;;;9.40;99.90;;;;;;5160970;27;20531;-69
2023/04/17 03:03:02;;;;;;;16.80;11.07;;;9.30;99.90;;;;;;5140433;27;20452;-69
2023/04/17 03:05:30;;;;;;;18.20;11.10;;;9.40;99.90;;;;;;5146040;27;20509;-69
2023/04/17 03:07:59;;;;;;;28.67;14.17;;;9.40;99.90;;;;;;5147351;27;20454;-70
2023/04/17 03:10:26;;;;;;;32.63;10.13;;;9.40;99.90;;;;;;5145923;27;20969;-69
2023/04/17 03:12:53;;;;;;;9.43;7.87;;;9.40;99.90;;;;;;5149639;27;20463;-69
2023/04/17 03:15:20;;;;;;;10.23;6.70;;;9.40;99.90;;;;;;5149510;27;20460;-70
2023/04/17 03:17:47;;;;;;;5.67;4.80;;;9.40;99.90;;;;;;5149398;27;20502;-69
2023/04/17 03:20:15;;;;;;;3.20;3.00;;;9.40;99.90;;;;;;5149083;27;20456;-69
2023/04/17 03:22:41;;;;;;;23.73;11.07;;;9.40;99.90;;;;;;5149382;27;21090;-69
2023/04/17 03:25:10;;;;;;;16.40;8.03;;;9.40;99.90;;;;;;5149598;27;20455;-69
2023/04/17 03:27:37;;;;;;;13.87;7.90;;;9.40;99.90;;;;;;5149743;27;20898;-69
2023/04/17 03:30:05;;;;;;;12.30;7.20;;;9.30;99.90;;;;;;5149151;27;20463;-69
2023/04/17 03:32:32;;;;;;;20.63;5.43;;;9.40;99.90;;;;;;5145100;27;20451;-69
2023/04/17 03:34:59;;;;;;;15.63;11.67;;;9.40;99.90;;;;;;5149348;27;21246;-69
2023/04/17 03:37:26;;;;;;;13.93;7.80;;;9.40;99.90;;;;;;5149183;27;20486;-69
2023/04/17 03:39:54;;;;;;;12.43;8.63;;;9.40;99.90;;;;;;5149391;27;20472;-70
2023/04/17 03:42:23;;;;;;;6.87;6.27;;;9.40;99.90;;;;;;5149466;27;20520;-69
2023/04/17 03:44:49;;;;;;;11.87;6.97;;;9.40;99.90;;;;;;5148946;27;20471;-69
2023/04/17 03:47:16;;;;;;;17.63;9.33;;;9.30;99.90;;;;;;5149101;27;20483;-70
2023/04/17 03:49:43;;;;;;;17.03;8.33;;;9.30;99.90;;;;;;5149286;27;20467;-69
2023/04/17 03:52:09;;;;;;;26.47;11.70;;;9.30;99.90;;;;;;5149056;27;20946;-69
2023/04/17 03:54:36;;;;;;;3.17;2.97;;;9.30;99.90;;;;;;5148867;27;20593;-69
2023/04/17 03:57:03;;;;;;;13.10;5.83;;;9.30;99.90;;;;;;5149179;27;20483;-69
2023/04/17 03:59:32;;;;;;;12.93;9.73;;;9.30;99.90;;;;;;5147956;27;20462;-69
2023/04/17 04:01:59;;;;;;;8.10;6.53;;;9.40;99.90;;;;;;5148837;27;20515;-69
2023/04/17 04:04:26;;;;;;;8.93;6.40;;;9.40;99.90;;;;;;5149003;27;20753;-69
2023/04/17 04:06:56;;;;;;;36.53;14.37;;;9.40;99.90;;;;;;5148546;27;20456;-69
2023/04/17 04:09:24;;;;;;;21.00;8.93;;;9.40;99.90;;;;;;5148868;27;20463;-69
2023/04/17 04:11:52;;;;;;;7.03;6.47;;;9.30;99.90;;;;;;5148938;27;20459;-69
2023/04/17 04:14:19;;;;;;;13.90;10.00;;;9.30;99.90;;;;;;5149161;27;20491;-69
2023/04/17 04:16:48;;;;;;;7.80;6.83;;;9.30;99.90;;;;;;5148481;27;20480;-69
2023/04/17 04:19:14;;;;;;;5.40;5.00;;;9.20;99.90;;;;;;5148765;27;20527;-69
2023/04/17 04:21:42;;;;;;;13.73;9.00;;;9.30;99.90;;;;;;5148644;27;21141;-69
2023/04/17 04:24:12;;;;;;;12.10;9.73;;;9.20;99.90;;;;;;5149067;27;20470;-68
2023/04/17 04:26:39;;;;;;;9.10;8.40;;;9.20;99.90;;;;;;5148523;27;20451;-68
2023/04/17 04:29:07;;;;;;;8.93;8.33;;;9.30;99.90;;;;;;5148614;27;20930;-69
2023/04/17 04:31:34;;;;;;;4.17;4.07;;;9.20;99.90;;;;;;5147527;27;20459;-68
2023/04/17 04:34:02;;;;;;;6.57;6.07;;;9.30;99.90;;;;;;5152607;27;20454;-69
2023/04/17 04:36:30;;;;;;;13.17;11.93;;;9.40;99.90;;;;;;5152371;27;20560;-68
2023/04/17 04:38:59;;;;;;;13.50;11.87;;;9.30;99.90;;;;;;5152916;27;20467;-68
2023/04/17 04:41:28;;;;;;;9.70;7.37;;;9.30;99.90;;;;;;5152697;27;20606;-68
2023/04/17 04:43:56;;;;;;;6.90;6.30;;;9.30;99.90;;;;;;5152290;27;20478;-69
2023/04/17 04:46:23;;;;;;;4.63;4.43;;;9.30;99.90;;;;;;5152250;27;20459;-69
2023/04/17 04:48:49;;;;;;;23.37;12.93;;;9.30;99.90;;;;;;5146105;27;21017;-68
2023/04/17 04:51:18;;;;;;;11.20;6.50;;;9.30;99.90;;;;;;5146453;27;20466;-69
2023/04/17 04:53:46;;;;;;;11.47;8.60;;;9.30;99.90;;;;;;5141402;27;21063;-69
2023/04/17 04:56:13;;;;;;;72.27;8.13;;;9.30;99.90;;;;;;5152918;27;20463;-69
2023/04/17 04:58:40;;;;;;;10.57;8.67;;;9.30;99.90;;;;;;5152274;27;20459;-69
2023/04/17 05:01:07;;;;;;;10.57;9.50;;;9.30;99.90;;;;;;5152699;27;20459;-69
2023/04/17 05:03:36;;;;;;;16.77;10.30;;;9.30;99.90;;;;;;5152728;27;20539;-68
2023/04/17 05:06:04;;;;;;;12.63;10.47;;;9.30;99.90;;;;;;5152630;27;20546;-69
2023/04/17 05:08:33;;;;;;;7.73;5.33;;;9.30;99.90;;;;;;5152245;27;20477;-69
2023/04/17 05:11:00;;;;;;;10.73;9.63;;;9.40;99.90;;;;;;5148758;27;20459;-70
2023/04/17 05:13:28;;;;;;;5.23;4.93;;;9.40;99.90;;;;;;5152584;27;20547;-69
2023/04/17 05:15:55;;;;;;;9.10;8.10;;;9.30;99.90;;;;;;5152439;27;20457;-68
2023/04/17 05:18:22;;;;;;;17.80;13.50;;;9.40;99.90;;;;;;5148562;27;20487;-69
2023/04/17 05:20:49;;;;;;;15.40;9.17;;;9.40;99.90;;;;;;5152457;27;20459;-69
2023/04/17 05:23:16;;;;;;;4.13;3.83;;;9.40;99.90;;;;;;5152528;27;20459;-69
2023/04/17 05:25:44;;;;;;;14.13;8.73;;;9.40;99.90;;;;;;5152036;27;20462;-69
2023/04/17 05:28:11;;;;;;;21.47;10.90;;;9.40;99.90;;;;;;5152340;27;20956;-69
2023/04/17 05:30:38;;;;;;;13.10;10.57;;;9.50;99.90;;;;;;5152468;27;20455;-69
2023/04/17 05:33:06;;;;;;;2.80;2.70;;;9.50;99.90;;;;;;5152002;27;20956;-69
2023/04/17 05:35:34;;;;;;;7.20;6.80;;;9.50;99.90;;;;;;5151747;27;20459;-69
2023/04/17 05:38:03;;;;;;;20.10;14.87;;;9.50;99.90;;;;;;5152046;27;20910;-69
2023/04/17 05:40:30;;;;;;;3.63;3.43;;;9.50;99.90;;;;;;5152020;27;21052;-69
2023/04/17 05:43:04;;;;;;;16.20;11.00;;;9.50;99.90;;;;;;5151483;27;21267;-69
2023/04/17 05:45:32;;;;;;;7.23;6.53;;;9.60;99.90;;;;;;5152020;27;20474;-68
2023/04/17 05:47:59;;;;;;;4.57;4.27;;;9.60;99.90;;;;;;5151518;27;20463;-69
2023/04/17 05:50:25;;;;;;;9.53;8.63;;;9.60;99.90;;;;;;5151378;27;20463;-69
2023/04/17 05:52:52;;;;;;;4.57;4.17;;;9.70;99.90;;;;;;5145749;27;20466;-69
2023/04/17 05:55:19;;;;;;;5.77;5.30;;;9.70;99.90;;;;;;5139066;27;21015;-70
2023/04/17 05:57:46;;;;;;;24.73;11.70;;;9.70;99.90;;;;;;5140761;27;20932;-69
2023/04/17 06:00:15;;;;;;;6.70;6.10;;;9.80;99.90;;;;;;5149477;27;20466;-68
2023/04/17 06:02:43;;;;;;;12.13;10.80;;;9.70;99.90;;;;;;5148988;27;20486;-68
2023/04/17 06:05:10;;;;;;;21.10;13.53;;;9.80;99.90;;;;;;5148575;27;20459;-69
2023/04/17 06:07:37;;;;;;;10.53;6.60;;;9.80;99.90;;;;;;5143340;27;20451;-69
2023/04/17 06:10:05;;;;;;;9.57;5.63;;;9.90;99.90;;;;;;5148976;27;20498;-68
2023/04/17 06:12:32;;;;;;;11.43;9.03;;;9.80;99.90;;;;;;5143780;27;20456;-69
2023/04/17 06:14:59;;;;;;;18.33;14.93;;;9.90;99.90;;;;;;5140093;27;20460;-69
2023/04/17 06:17:28;;;;;;;27.07;15.97;;;9.90;99.90;;;;;;5148424;27;20817;-68
2023/04/17 06:19:54;;;;;;;5.20;5.00;;;9.90;99.90;;;;;;5140638;27;20516;-68
2023/04/17 06:22:21;;;;;;;31.97;18.90;;;9.90;99.90;;;;;;5138368;27;20460;-68
2023/04/17 06:24:48;;;;;;;12.70;9.63;;;9.90;99.90;;;;;;5139416;27;20458;-69
2023/04/17 06:27:15;;;;;;;25.77;16.43;;;9.90;99.90;;;;;;5139640;27;20811;-69
2023/04/17 06:29:41;;;;;;;3.83;3.63;;;9.90;99.90;;;;;;5140494;27;20459;-68
2023/04/17 06:32:08;;;;;;;7.20;6.80;;;10.00;99.90;;;;;;5143489;27;20459;-69
2023/04/17 06:34:36;;;;;;;14.23;8.07;;;10.10;99.90;;;;;;5150137;27;20539;-69
2023/04/17 06:37:03;;;;;;;30.77;14.63;;;10.20;99.90;;;;;;5147095;27;20848;-69
2023/04/17 06:42:02;;;;;;;9.10;8.10;;;10.30;99.90;;;;;;5139786;27;20436;-69
2023/04/17 06:44:29;;;;;;;19.67;14.70;;;10.30;99.90;;;;;;5148003;27;20550;-68
2023/04/17 06:46:57;;;;;;;20.67;15.10;;;10.30;99.90;;;;;;5148928;27;20451;-69
2023/04/17 06:49:24;;;;;;;14.07;12.60;;;10.20;99.90;;;;;;5142967;27;20475;-69
2023/04/17 06:51:52;;;;;;;11.63;9.57;;;10.20;99.90;;;;;;5144764;27;20509;-69
2023/04/17 06:54:19;;;;;;;4.60;4.27;;;10.10;99.90;;;;;;5149699;27;20495;-68
2023/04/17 06:56:46;;;;;;;13.43;4.13;;;10.10;99.90;;;;;;5145347;27;20484;-69
2023/04/17 06:59:13;;;;;;;5.70;5.40;;;10.10;99.90;;;;;;5144911;27;20981;-70
2023/04/17 07:01:41;;;;;;;11.63;8.43;;;10.10;99.90;;;;;;5148835;27;20484;-69
2023/04/17 07:04:08;;;;;;;18.63;12.77;;;10.20;99.90;;;;;;5137390;27;20466;-69
2023/04/17 07:06:37;;;;;;;13.93;7.50;;;10.20;99.90;;;;;;5147149;27;20550;-69
2023/04/17 07:09:05;;;;;;;3.57;3.47;;;10.20;99.90;;;;;;5137942;27;20482;-69
2023/04/17 07:11:33;;;;;;;22.30;16.60;;;10.20;99.90;;;;;;5136597;27;20460;-69
2023/04/17 07:14:00;;;;;;;5.70;5.47;;;10.20;99.90;;;;;;5147146;27;20463;-69
2023/04/17 07:16:26;;;;;;;32.90;17.63;;;10.00;99.90;;;;;;5139573;27;20571;-68
2023/04/17 07:18:53;;;;;;;9.87;9.17;;;10.10;99.90;;;;;;5142279;27;20976;-68
2023/04/17 07:21:20;;;;;;;8.33;7.53;;;10.10;99.90;;;;;;5147404;27;20507;-69
2023/04/17 07:23:47;;;;;;;17.77;12.17;;;10.20;99.90;;;;;;5143488;27;20486;-69
2023/04/17 07:26:15;;;;;;;16.70;14.23;;;10.20;99.90;;;;;;5144106;27;20460;-68
2023/04/17 07:28:42;;;;;;;22.50;15.00;;;10.20;99.90;;;;;;5142250;27;20459;-69
2023/04/17 07:31:09;;;;;;;22.50;12.60;;;10.20;99.90;;;;;;5146899;27;20459;-69
2023/04/17 07:33:36;;;;;;;26.20;15.47;;;10.10;99.90;;;;;;5148067;27;20511;-69
2023/04/17 07:36:03;;;;;;;14.60;13.10;;;10.20;99.90;;;;;;5147434;27;20949;-68
2023/04/17 07:38:31;;;;;;;15.67;12.83;;;10.20;99.90;;;;;;5144056;27;20478;-69
2023/04/17 07:40:58;;;;;;;12.10;11.03;;;10.30;99.90;;;;;;5141351;27;20546;-68
2023/04/17 07:43:26;;;;;;;5.10;4.60;;;10.30;99.90;;;;;;5142309;27;20463;-68
2023/04/17 07:45:53;;;;;;;9.40;8.43;;;10.40;99.90;;;;;;5137562;27;20447;-69
2023/04/17 07:48:22;;;;;;;22.03;15.50;;;10.60;99.90;;;;;;5138539;27;20460;-69
2023/04/17 07:50:50;;;;;;;11.20;8.53;;;10.60;99.90;;;;;;5140643;27;20451;-68
2023/04/17 07:53:17;;;;;;;8.23;7.40;;;10.70;99.90;;;;;;5142418;27;20539;-68
2023/04/17 07:55:44;;;;;;;15.50;13.60;;;10.80;99.90;;;;;;5135044;27;20846;-69
2023/04/17 07:58:11;;;;;;;11.83;10.60;;;10.90;99.90;;;;;;5143471;27;20479;-68
2023/04/17 08:00:41;;;;;;;10.50;9.60;;;10.90;99.90;;;;;;5136033;27;20495;-69
2023/04/17 08:03:08;;;;;;;43.00;12.40;;;10.90;99.90;;;;;;5141821;27;20512;-69
2023/04/17 08:05:35;;;;;;;10.37;9.33;;;10.80;99.90;;;;;;5142498;27;20482;-68
2023/04/17 08:08:03;;;;;;;26.53;18.83;;;10.80;99.90;;;;;;5147873;27;20498;-70
2023/04/17 08:10:30;;;;;;;17.70;13.23;;;10.80;99.90;;;;;;5150845;27;20459;-69
2023/04/17 08:12:56;;;;;;;5.57;5.37;;;10.90;99.90;;;;;;5150085;27;20467;-69
2023/04/17 08:15:23;;;;;;;29.13;18.80;;;11.00;99.90;;;;;;5139789;27;20492;-69
2023/04/17 08:17:51;;;;;;;21.00;18.53;;;11.10;99.90;;;;;;5149215;27;20486;-69
2023/04/17 08:20:19;;;;;;;12.07;10.97;;;11.30;99.90;;;;;;5149833;27;21016;-70
2023/04/17 08:22:46;;;;;;;11.63;10.53;;;11.30;99.90;;;;;;5141992;27;20467;-70
2023/04/17 08:25:14;;;;;;;16.30;14.70;;;11.40;99.90;;;;;;5148582;27;20824;-70
2023/04/17 08:27:42;;;;;;;16.10;14.40;;;11.60;99.90;;;;;;5147407;27;20883;-69
2023/04/17 08:30:11;;;;;;;14.97;13.50;;;11.60;99.90;;;;;;5147731;27;20659;-69
2023/04/17 08:32:39;;;;;;;20.27;14.70;;;11.70;99.90;;;;;;5146033;27;20454;-70
2023/04/17 08:35:10;;;;;;;28.97;15.17;;;11.80;99.90;;;;;;5144172;27;20475;-69
2023/04/17 08:37:37;;;;;;;14.10;13.07;;;12.20;99.90;;;;;;5142620;27;20490;-69
2023/04/17 08:40:07;;;;;;;12.70;11.87;;;12.70;99.90;;;;;;5143706;27;20829;-68
2023/04/17 08:42:36;;;;;;;17.43;15.50;;;13.00;99.90;;;;;;5142864;27;21037;-69
2023/04/17 08:45:05;;;;;;;26.90;21.70;;;13.30;99.90;;;;;;5140472;27;20499;-71
2023/04/17 08:47:33;;;;;;;19.57;17.93;;;13.30;99.90;;;;;;5145565;27;20474;-70
2023/04/17 08:50:00;;;;;;;18.70;16.97;;;13.20;99.90;;;;;;5140422;27;20451;-69
2023/04/17 08:52:29;;;;;;;17.17;15.77;;;12.90;99.90;;;;;;5142822;27;20463;-69
2023/04/17 08:54:56;;;;;;;32.43;23.60;;;12.90;99.90;;;;;;5146255;27;20697;-70
2023/04/17 08:57:23;;;;;;;27.90;24.90;;;12.70;99.90;;;;;;5140843;27;20466;-69
2023/04/17 08:59:50;;;;;;;18.10;16.67;;;12.70;99.90;;;;;;5149371;27;20839;-69
2023/04/17 09:02:16;;;;;;;18.30;16.77;;;12.80;99.90;;;;;;5145925;27;20499;-69
2023/04/17 09:04:45;;;;;;;16.53;15.30;;;13.00;99.90;;;;;;5140328;27;20455;-69
2023/04/17 09:07:14;;;;;;;26.90;20.00;;;13.30;99.90;;;;;;5140204;27;20796;-70
2023/04/17 09:09:50;;;;;;;23.30;21.03;;;13.30;99.90;;;;;;5137332;27;20966;-68
2023/04/17 09:12:17;;;;;;;25.67;23.07;;;13.80;99.90;;;;;;5140941;27;20465;-69
2023/04/17 09:14:44;;;;;;;31.00;27.70;;;13.90;99.90;;;;;;5148762;27;20616;-69
2023/04/17 09:17:11;;;;;;;24.47;22.07;;;14.00;99.90;;;;;;5145603;27;20496;-70
2023/04/17 09:19:38;;;;;;;20.20;18.77;;;13.90;99.90;;;;;;5144754;27;21022;-68
2023/04/17 09:22:21;;;;;;;25.77;23.17;;;13.90;99.90;;;;;;5148654;27;20495;-69
2023/04/17 09:24:50;;;;;;;15.87;15.07;;;13.90;99.90;;;;;;5149194;27;20540;-70
2023/04/17 09:27:21;;;;;;;21.60;19.63;;;13.70;99.90;;;;;;5145005;27;20821;-69
2023/04/17 09:30:00;;;;;;;27.93;25.10;;;13.90;99.90;;;;;;5149293;27;20829;-70
2023/04/17 09:32:28;;;;;;;23.13;20.97;;;13.90;99.90;;;;;;5147224;27;20539;-69
2023/04/17 09:34:58;;;;;;;21.83;20.10;;;13.70;99.90;;;;;;5146902;27;20910;-70
2023/04/17 09:37:26;;;;;;;22.03;20.17;;;13.90;99.90;;;;;;5146796;27;20456;-69
2023/04/17 09:40:01;;;;;;;17.23;16.20;;;13.50;99.90;;;;;;5149249;27;20502;-71
2023/04/17 09:42:28;;;;;;;16.77;15.77;;;13.60;99.90;;;;;;5149700;27;20450;-70
2023/04/17 09:44:56;;;;;;;18.60;17.37;;;14.10;99.90;;;;;;5138701;27;20826;-70
2023/04/17 09:47:23;;;;;;;22.20;20.60;;;14.10;99.90;;;;;;5143510;27;20456;-70
2023/04/17 09:49:52;;;;;;;19.17;17.60;;;14.00;99.90;;;;;;5137952;27;20447;-69
2023/04/17 09:52:20;;;;;;;27.07;24.20;;;14.10;99.90;;;;;;5142087;27;20500;-71
2023/04/17 09:54:48;;;;;;;18.63;17.13;;;14.20;99.90;;;;;;5137286;27;20479;-70
2023/04/17 09:57:17;;;;;;;23.40;21.47;;;14.00;99.90;;;;;;5145911;27;21028;-70
2023/04/17 09:59:46;;;;;;;19.07;17.97;;;13.90;99.90;;;;;;5152783;27;20483;-70
2023/04/17 10:02:15;;;;;;;22.70;20.57;;;14.00;99.90;;;;;;5148808;27;20811;-70
2023/04/17 10:04:43;;;;;;;23.73;21.83;;;14.30;99.90;;;;;;5149375;27;20487;-70
2023/04/17 10:07:11;;;;;;;20.73;19.27;;;14.90;99.90;;;;;;5148526;27;20954;-70
2023/04/17 10:09:40;;;;;;;26.07;23.37;;;15.10;99.90;;;;;;5148861;27;20535;-70
2023/04/17 10:12:12;;;;;;;17.27;15.90;;;15.00;99.90;;;;;;5149584;27;20487;-71
2023/04/17 10:14:45;;;;;;;23.73;21.93;;;15.20;99.90;;;;;;5148454;27;20542;-72
2023/04/17 10:17:23;;;;;;;17.80;16.90;;;15.20;99.90;;;;;;5147867;27;20443;-69
2023/04/17 10:19:50;;;;;;;21.97;19.93;;;15.30;99.90;;;;;;5145629;27;20523;-70
2023/04/17 10:22:30;;;;;;;19.60;18.10;;;15.20;99.90;;;;;;5148720;27;20969;-69
2023/04/17 10:25:19;;;;;;;20.27;19.00;;;15.10;99.90;;;;;;5148649;27;21028;-70
2023/04/17 10:27:48;;;;;;;23.03;21.13;;;15.70;99.90;;;;;;5148680;27;20933;-71
2023/04/17 10:30:18;;;;;;;18.53;17.43;;;16.10;99.90;;;;;;5146987;27;20463;-70
2023/04/17 10:32:46;;;;;;;21.87;20.30;;;16.20;99.90;;;;;;5148356;27;20542;-71
2023/04/17 10:35:36;;;;;;;21.60;19.50;;;16.00;99.90;;;;;;5143554;27;20463;-70
2023/04/17 10:38:06;;;;;;;21.43;19.57;;;16.30;99.90;;;;;;5148104;27;20575;-69
2023/04/17 10:40:34;;;;;;;23.03;20.63;;;16.50;99.90;;;;;;5147947;27;20478;-70
2023/04/17 10:43:12;;;;;;;17.13;16.13;;;16.60;99.90;;;;;;5148047;27;20452;-69
2023/04/17 10:45:58;;;;;;;21.37;19.87;;;16.80;99.90;;;;;;5144458;27;20997;-69
2023/04/17 10:48:31;;;;;;;16.60;15.70;;;16.60;99.90;;;;;;5143140;27;20460;-69
2023/04/17 10:50:59;;;;;;;20.60;19.00;;;16.70;99.90;;;;;;5146132;27;20436;-69
2023/04/17 10:53:40;;;;;;;21.50;19.77;;;17.10;99.90;;;;;;5147701;27;20453;-70
2023/04/17 10:56:07;;;;;;;19.90;18.70;;;17.00;99.90;;;;;;5141921;27;20533;-70
2023/04/17 10:58:38;;;;;;;19.90;18.60;;;17.40;99.90;;;;;;5148028;27;20470;-69
2023/04/17 11:01:10;;;;;;;20.47;18.83;;;17.80;99.90;;;;;;5148047;27;20844;-69
2023/04/17 11:03:38;;;;;;;16.50;15.70;;;18.10;99.90;;;;;;5147870;27;20551;-69
2023/04/17 11:06:06;;;;;;;20.30;18.53;;;17.60;99.90;;;;;;5145635;27;20553;-69
2023/04/17 11:08:33;;;;;;;19.23;17.80;;;17.50;99.90;;;;;;5147166;27;20447;-69
2023/04/17 11:11:01;;;;;;;18.33;17.23;;;17.90;99.90;;;;;;5147217;27;20459;-70
2023/04/17 11:13:33;;;;;;;21.30;19.30;;;17.60;99.90;;;;;;5148544;27;20516;-68
2023/04/17 11:16:00;;;;;;;19.47;18.27;;;17.80;99.90;;;;;;5145861;27;20474;-70
2023/04/17 11:18:28;;;;;;;19.67;18.47;;;18.50;99.90;;;;;;5146566;27;20904;-69
2023/04/17 11:20:57;;;;;;;17.50;16.63;;;18.50;99.90;;;;;;5146724;27;20972;-69
2023/04/17 11:23:24;;;;;;;19.30;18.00;;;18.20;99.90;;;;;;5148513;27;20800;-70
2023/04/17 11:25:50;;;;;;;20.60;19.10;;;18.40;99.90;;;;;;5147388;27;20451;-70
2023/04/17 11:28:17;;;;;;;19.07;18.07;;;18.60;99.90;;;;;;5143354;27;20478;-71
2023/04/17 11:30:44;;;;;;;17.67;16.67;;;19.10;99.90;;;;;;5141763;27;21020;-70
2023/04/17 11:33:12;;;;;;;18.73;17.73;;;20.60;99.90;;;;;;5148139;27;20459;-69
2023/04/17 11:35:42;;;;;;;20.73;19.40;;;20.80;99.90;;;;;;5146010;27;20479;-69
2023/04/17 11:38:16;;;;;;;17.90;16.77;;;21.00;98.20;;;;;;5142623;27;20459;-70
2023/04/17 11:40:47;;;;;;;16.90;16.00;;;20.70;96.30;;;;;;5138461;27;20942;-70
2023/04/17 11:43:16;;;;;;;18.97;17.80;;;21.30;95.60;;;;;;5140143;27;20457;-70
2023/04/17 11:45:45;;;;;;;19.07;18.07;;;21.30;93.20;;;;;;5147048;27;20852;-69
2023/04/17 11:48:13;;;;;;;20.10;18.97;;;21.20;91.90;;;;;;5144335;27;20959;-70
2023/04/17 11:50:43;;;;;;;20.77;19.37;;;20.80;91.00;;;;;;5140705;27;20853;-71
2023/04/17 11:53:13;;;;;;;19.30;17.83;;;19.50;92.90;;;;;;5147532;27;20642;-71
2023/04/17 11:55:40;;;;;;;18.57;17.20;;;19.30;93.60;;;;;;5146544;27;20882;-70
2023/04/17 11:58:09;;;;;;;18.83;17.83;;;19.10;92.60;;;;;;5147628;27;20859;-70
2023/04/17 12:00:37;;;;;;;19.63;18.30;;;19.80;92.30;;;;;;5142697;27;20484;-70
2023/04/17 12:03:29;;;;;;;22.33;17.87;;;19.60;92.00;;;;;;5146405;27;20522;-70
2023/04/17 12:06:02;;;;;;;17.30;16.40;;;20.00;92.40;;;;;;5143464;27;20459;-71
2023/04/17 12:08:29;;;;;;;19.93;18.73;;;20.90;91.80;;;;;;5137370;27;20458;-71
2023/04/17 12:10:57;;;;;;;20.03;18.47;;;20.40;88.80;;;;;;5144370;27;20539;-70
2023/04/17 12:13:25;;;;;;;19.27;17.10;;;20.20;89.40;;;;;;5146922;27;20463;-71
2023/04/17 12:15:51;;;;;;;16.57;15.67;;;20.60;91.00;;;;;;5145466;27;21020;-70
2023/04/17 12:18:18;;;;;;;18.40;17.40;;;21.60;89.80;;;;;;5131901;27;20928;-70
2023/04/17 12:20:46;;;;;;;19.23;18.13;;;21.00;88.80;;;;;;5142912;27;20862;-68
2023/04/17 12:23:14;;;;;;;18.90;17.80;;;21.30;90.30;;;;;;5135356;27;20569;-68
2023/04/17 12:25:41;;;;;;;19.73;18.33;;;21.10;89.60;;;;;;5147185;27;20458;-71
2023/04/17 12:28:08;;;;;;;18.27;17.13;;;21.60;86.60;;;;;;5146942;27;20610;-70
2023/04/17 12:30:38;;;;;;;18.10;17.00;;;21.60;84.20;;;;;;5143542;27;20462;-71
2023/04/17 12:33:07;;;;;;;17.80;16.70;;;20.50;81.50;;;;;;5147446;27;20467;-72
2023/04/17 12:35:34;;;;;;;16.63;15.83;;;20.80;81.90;;;;;;5146394;27;20833;-70
2023/04/17 12:38:01;;;;;;;16.00;15.20;;;21.70;81.00;;;;;;5147420;27;20443;-71
2023/04/17 12:40:29;;;;;;;20.43;19.20;;;22.30;79.10;;;;;;5146108;27;20495;-70
2023/04/17 12:42:56;;;;;;;19.00;17.70;;;21.60;74.00;;;;;;5145481;27;20452;-68
2023/04/17 12:45:23;;;;;;;18.90;17.70;;;21.30;74.90;;;;;;5145993;27;20487;-68